Date,TemperatureHighF,TemperatureAvgF,TemperatureLowF,DewpointHighF,DewpointAvgF,DewpointLowF,HumidityHigh,HumidityAvg,HumidityLow,PressureMaxIn,PressureMinIn,WindSpeedMaxMPH,WindSpeedAvgMPH,GustSpeedMaxMPH,PrecipitationSumIn
2013-1-12,40.3,31.6,27.0,33.8,25.6,22.2,99,79,55,30.17,30.09,0,0,0,0.00
2013-1-13,37.4,30.5,26.2,32.9,27.3,25.2,99,88,63,30.22,30.16,0,0,0,0.00
2013-1-14,38.3,34.2,32.0,32.8,29.2,25.7,90,82,72,30.29,30.19,0,0,0,0.00
2013-1-15,47.3,36.1,32.0,35.4,31.5,29.2,95,84,54,30.42,30.29,0,0,0,0.00
2013-1-16,48.0,34.4,29.1,37.3,31.4,28.9,99,89,56,30.41,30.24,0,0,0,0.00
2013-1-17,38.1,33.7,28.9,37.0,33.1,28.7,99,98,92,30.25,30.02,0,0,0,0.00
2013-1-18,37.2,34.1,31.6,37.0,33.9,31.4,99,99,98,30.07,29.99,0,0,0,0.00
2013-1-19,36.0,33.5,31.3,35.7,33.0,31.0,99,98,93,30.12,30.06,0,0,0,0.00
2013-1-20,51.3,35.4,31.8,39.9,34.1,31.6,99,95,58,30.12,29.99,0,0,0,0.00
2013-1-21,37.0,33.8,31.5,36.8,33.5,31.2,99,99,97,30.00,29.87,0,0,0,0.00
2013-1-22,40.6,35.0,30.7,37.7,33.6,30.5,99,95,82,29.87,29.63,0,0,0,0.00
2013-1-23,41.9,40.6,38.7,41.5,37.3,31.2,99,88,67,29.86,29.57,0,0,0,0.00
2013-1-24,45.3,41.7,39.4,41.5,39.0,35.3,99,90,70,29.93,29.77,0,0,0,0.00
2013-1-25,58.5,45.3,41.7,47.1,42.3,37.8,99,90,59,29.79,29.65,0,0,0,0.00
2013-1-26,41.9,40.7,39.6,40.2,39.3,37.6,99,95,86,29.65,29.61,0,0,0,0.00
2013-2-3,48.4,45.9,43.9,43.9,42.9,41.9,99,89,82,30.03,29.93,0,0,0,0.00
2013-2-26,43.3,42.7,42.1,36.0,34.9,34.2,79,74,71,29.93,29.92,0,0,0,0.00
2013-2-27,49.1,43.2,39.9,43.3,40.7,36.0,99,91,69,30.03,29.93,0,0,0,0.00
2013-2-28,51.4,46.5,41.5,51.2,46.2,41.3,99,99,99,30.05,29.91,0,0,0,0.00
2013-3-1,57.0,52.3,50.0,51.9,50.1,48.6,99,93,79,30.08,30.00,0,0,0,0.00
2013-3-2,57.6,49.2,37.4,49.4,45.1,37.1,99,86,67,30.00,29.80,0,0,0,0.00
2013-3-3,54.7,40.5,35.2,38.7,35.0,30.4,99,82,45,30.03,29.93,0,0,0,0.00
2013-3-4,58.5,41.5,31.3,35.8,30.5,23.6,96,69,26,30.03,29.65,0,0,0,0.00
2013-3-5,49.6,43.6,39.4,40.8,34.6,25.2,95,71,55,29.65,29.45,0,0,0,0.00
2013-3-6,43.0,41.3,39.4,42.5,40.5,38.6,99,97,87,29.54,29.31,0,0,0,0.00
2013-3-30,69.1,57.4,50.4,46.8,43.7,41.0,74,61,42,29.89,29.81,0,0,0,0.00
2013-3-31,73.4,56.1,45.3,43.3,40.4,36.7,85,58,29,29.81,29.64,0,0,0,0.00
2013-4-1,64.9,53.0,46.2,48.6,46.1,40.9,97,79,48,29.89,29.70,0,0,0,0.00
2013-4-2,59.5,52.3,48.2,47.1,45.2,43.8,89,77,62,29.93,29.88,0,0,0,0.00
2013-4-7,41.9,41.9,41.9,41.6,41.6,41.6,99,99,99,29.39,29.39,0,0,0,0.00
2013-4-30,45.3,44.4,43.5,32.9,32.2,31.2,65,62,60,30.17,30.15,0,0,0,0.00
2013-5-1,65.1,50.4,37.9,40.4,33.0,18.9,94,57,19,30.31,30.17,0,0,0,0.00
2013-5-2,65.7,54.4,44.2,42.0,37.3,32.3,76,54,34,30.28,30.10,0,0,0,0.00
2013-5-27,56.1,54.4,53.2,55.8,54.1,53.0,99,99,99,29.51,29.46,0,0,0,0.00
2013-5-28,62.8,54.9,51.3,54.2,50.1,46.4,99,85,62,29.61,29.50,0,0,0,0.00
2013-5-29,60.3,52.8,48.4,53.0,49.6,47.2,99,89,68,29.70,29.42,0,0,0,0.00
2013-5-30,62.2,54.0,48.7,48.9,47.0,44.2,93,78,55,29.90,29.69,0,0,0,0.00
2013-7-2,69.3,65.3,63.5,59.9,55.2,49.7,81,70,56,29.83,29.78,0,0,0,0.00
2013-7-3,80.2,66.1,59.0,53.8,49.0,40.7,70,55,30,29.88,29.77,0,0,0,0.00
2013-7-4,71.6,62.3,57.2,54.6,52.2,49.1,88,70,49,29.86,29.75,0,0,0,0.00
2013-7-5,76.3,64.1,55.2,56.2,53.8,50.5,95,71,43,29.77,29.68,0,0,0,0.00
2013-7-6,79.2,65.5,55.8,57.6,53.6,44.4,97,69,33,29.71,29.59,0,0,0,0.00
2013-7-7,73.9,65.0,57.0,59.7,56.6,52.6,94,75,58,29.68,29.60,0,0,0,0.00
2013-7-8,72.9,59.2,55.6,56.8,54.4,53.2,93,85,54,29.82,29.67,0,0,0,0.00
2013-7-10,60.6,59.4,58.3,50.8,50.3,49.7,74,72,70,29.71,29.70,0,0,0,0.00
2013-7-11,71.2,60.2,55.2,51.1,48.7,44.5,80,66,39,29.81,29.71,0,0,0,0.00
2013-7-12,66.2,58.7,53.8,53.2,49.7,46.4,81,72,60,29.83,29.74,0,0,0,0.00
2013-7-13,77.2,63.3,51.8,51.7,47.0,40.1,84,58,27,29.93,29.83,0,0,0,0.00
2013-7-14,82.0,66.0,53.4,52.1,46.6,35.7,86,53,21,29.86,29.72,0,0,0,0.00
2013-7-15,79.9,65.7,56.1,54.1,48.5,39.2,80,56,31,29.78,29.62,0,0,0,0.00
2013-7-16,84.9,71.4,61.5,55.0,47.3,41.7,62,43,24,29.63,29.52,0,0,0,0.00
2013-7-17,71.1,64.7,59.2,57.5,55.5,52.1,92,73,55,29.91,29.61,0,0,0,0.00
2013-7-18,79.9,65.1,57.9,57.3,55.2,53.2,90,72,41,29.96,29.85,0,0,0,0.00
2013-7-19,79.9,65.3,56.3,59.4,56.4,54.5,95,75,45,29.90,29.76,0,0,0,0.00
2013-7-20,76.3,62.3,54.9,59.5,56.3,53.7,99,83,52,29.82,29.68,0,0,0,0.00
2013-7-21,76.3,62.9,54.9,60.0,56.7,54.1,99,82,51,29.71,29.63,0,0,0,0.00
2013-7-22,78.1,64.4,55.6,58.9,56.6,55.3,99,78,47,29.79,29.66,0,0,0,0.00
2013-7-23,82.4,66.5,54.5,59.7,53.1,42.4,99,67,27,29.80,29.69,0,0,0,0.00
2013-7-24,84.2,69.1,56.5,57.1,50.7,38.9,89,57,24,29.78,29.72,0,0,0,0.00
2013-7-25,85.6,68.1,54.5,55.9,51.7,44.8,93,59,26,29.83,29.75,0,0,0,0.00
2013-7-26,86.0,68.5,55.4,54.7,49.0,36.2,89,54,22,29.88,29.79,0,0,0,0.00
2013-7-27,80.4,64.6,55.6,53.3,50.2,43.3,86,62,32,29.90,29.72,0,0,0,0.00
2013-7-28,70.3,60.4,53.6,55.2,52.8,50.4,94,77,53,29.76,29.68,0,0,0,0.00
2013-7-29,78.4,63.8,55.0,55.8,53.1,51.1,89,70,39,29.74,29.67,0,0,0,0.00
2013-7-30,78.3,64.0,55.2,57.0,54.8,53.1,94,74,44,29.86,29.73,0,0,0,0.00
2013-7-31,69.6,61.2,55.2,60.9,57.1,54.2,99,87,66,29.85,29.71,0,0,0,0.00
2013-8-1,72.1,61.0,54.9,59.2,55.4,54.2,98,83,56,29.79,29.75,0,0,0,0.00
2013-8-2,60.3,59.1,58.1,59.4,57.3,55.1,99,94,84,29.85,29.77,0,0,0,0.00
2013-8-5,68.5,67.0,65.8,58.8,55.9,52.7,71,68,61,29.68,29.66,0,0,0,0.00
2013-8-6,86.5,68.1,55.2,57.6,52.8,40.8,93,62,21,29.74,29.63,0,0,0,0.00
2013-8-7,85.8,68.4,56.5,59.1,54.1,42.3,94,64,24,29.74,29.67,0,0,0,0.00
2013-8-8,81.7,66.4,57.4,59.2,56.3,52.4,96,72,43,29.76,29.66,0,0,0,0.00
2013-8-9,78.8,67.6,56.3,58.7,55.7,52.0,96,68,44,29.68,29.56,0,0,0,0.00
2013-8-10,74.5,64.9,57.7,63.0,60.2,56.5,99,86,65,29.74,29.62,0,0,0,0.00
2013-8-11,73.9,63.4,56.7,58.3,55.1,52.1,95,76,48,29.79,29.71,0,0,0,0.00
2013-8-12,77.4,64.6,57.6,58.5,55.3,51.7,93,74,43,29.80,29.72,0,0,0,0.00
2013-8-13,81.0,66.2,57.7,57.4,54.7,50.2,91,69,37,29.82,29.65,0,0,0,0.00
2013-8-14,78.6,66.4,58.3,63.0,57.4,52.8,96,75,42,29.69,29.63,0,0,0,0.00
2013-8-15,68.5,65.2,61.9,66.7,63.8,61.6,99,95,88,29.71,29.64,0,0,0,0.00
2013-8-16,81.9,68.9,60.4,67.2,59.2,42.2,99,76,26,29.73,29.66,0,0,0,0.00
2013-8-17,77.4,67.7,62.2,60.7,57.4,54.7,83,70,52,29.80,29.72,0,0,0,0.00
2013-8-18,77.4,65.5,58.6,59.5,55.8,50.8,92,72,50,29.85,29.79,0,0,0,0.00
2013-8-19,78.6,66.0,59.5,58.1,54.1,49.9,82,66,45,29.83,29.78,0,0,0,0.00
2013-8-20,73.6,64.9,58.5,54.9,50.8,46.9,79,61,41,29.89,29.79,0,0,0,0.00
2013-8-21,76.6,66.0,55.9,53.4,50.9,47.6,81,60,42,29.82,29.66,0,0,0,0.00
2013-8-22,79.5,69.7,58.6,55.6,51.6,47.7,73,54,33,29.67,29.52,0,0,0,0.00
2013-8-23,74.8,66.5,61.0,59.2,55.6,53.0,87,69,50,29.61,29.54,0,0,0,0.00
2013-8-24,74.5,64.6,59.9,58.0,55.2,49.5,89,73,43,29.64,29.58,0,0,0,0.00
2013-8-25,69.8,63.4,56.1,58.4,54.0,51.4,89,72,52,29.67,29.59,0,0,0,0.00
2013-8-26,74.5,64.3,59.5,59.1,56.2,47.8,90,76,40,29.68,29.58,0,0,0,0.00
2013-8-27,76.1,66.8,61.5,60.4,57.2,51.5,89,73,52,29.68,29.52,0,0,0,0.00
2013-8-28,76.1,66.8,59.0,66.3,60.8,55.5,99,83,57,29.61,29.55,0,0,0,0.00
2013-8-29,70.5,66.3,63.1,67.5,65.1,62.9,99,96,82,29.73,29.63,0,0,0,0.00
2013-8-30,75.6,66.0,60.1,63.2,57.6,49.7,99,77,42,29.87,29.73,0,0,0,0.00
2013-8-31,73.8,64.4,56.1,59.3,56.9,55.1,99,78,57,29.81,29.56,0,0,0,0.00
2013-9-1,78.8,66.8,58.8,61.2,58.0,55.6,96,75,48,29.61,29.51,0,0,0,0.00
2013-9-2,79.2,68.5,61.5,59.6,56.7,52.2,85,68,42,29.67,29.58,0,0,0,0.00
2013-9-3,70.9,64.1,60.4,65.8,61.3,57.7,99,91,71,29.75,29.66,0,0,0,0.00
2013-9-4,69.4,63.1,59.0,62.9,60.5,58.7,99,91,74,29.77,29.71,0,0,0,0.00
2013-9-5,64.8,61.2,59.2,62.8,59.9,58.2,99,96,86,29.76,29.64,0,0,0,0.00
2013-9-6,68.5,62.5,60.1,66.6,61.7,59.8,99,97,87,29.82,29.65,0,0,0,0.00
2013-9-7,69.4,63.3,60.8,62.5,60.7,59.1,99,92,72,29.82,29.74,0,0,0,0.00
2013-9-8,75.4,64.8,57.4,62.7,59.2,57.1,99,84,54,29.83,29.74,0,0,0,0.00
2013-9-9,72.9,62.7,56.5,62.6,58.9,56.2,99,88,63,29.80,29.70,0,0,0,0.00
2013-9-10,73.4,64.0,55.9,62.6,59.4,55.7,99,86,68,29.72,29.61,0,0,0,0.00
2013-9-11,83.7,70.7,60.4,62.8,59.3,55.8,96,69,45,29.66,29.59,0,0,0,0.00
2013-9-12,75.6,65.7,59.4,63.4,60.3,55.7,99,84,63,29.72,29.62,0,0,0,0.00
2013-9-13,64.4,61.7,59.2,62.3,60.7,58.9,99,97,90,29.69,29.59,0,0,0,0.00
2013-9-14,67.3,61.7,58.5,62.3,60.2,58.2,99,95,81,29.60,29.45,0,0,0,0.00
2013-9-15,63.1,59.4,55.9,62.9,59.1,55.7,99,99,99,29.53,29.43,0,0,0,0.00
2013-9-16,68.0,60.6,58.3,61.6,58.7,53.8,99,94,78,29.65,29.52,0,0,0,0.00
2013-9-17,61.2,58.3,55.9,56.8,54.0,51.9,94,86,74,29.65,29.58,0,0,0,0.00
2013-9-18,66.6,58.8,54.0,56.2,53.0,48.7,99,83,54,29.80,29.65,0,0,0,0.00
2013-9-19,75.2,61.9,50.2,56.3,50.5,41.5,99,71,30,29.77,29.48,0,0,0,0.00
2013-9-20,72.9,62.0,56.3,58.4,52.6,47.5,99,73,48,29.48,29.31,0,0,0,0.00
2013-9-21,66.9,59.5,54.9,58.0,55.1,52.4,99,87,62,29.44,29.36,0,0,0,0.00
2013-9-22,59.7,56.7,54.1,58.7,55.1,50.7,99,94,74,29.45,29.29,0,0,0,0.00
2013-9-23,59.9,55.3,53.4,57.5,53.9,48.3,99,95,79,29.68,29.45,0,0,0,0.00
2013-9-24,63.3,54.2,50.2,53.1,50.4,45.9,99,88,58,29.67,29.55,0,0,0,0.00
2013-9-25,58.5,52.0,49.1,53.2,49.4,45.5,99,92,65,29.75,29.58,0,0,0,0.00
2013-9-26,59.2,50.5,46.8,52.3,48.8,46.5,99,95,72,29.84,29.74,0,0,0,0.00
2013-9-27,56.3,53.6,51.1,54.7,52.3,48.5,99,95,87,29.84,29.56,0,0,0,0.00
2013-9-28,58.8,54.7,50.9,58.5,54.4,50.6,99,99,97,29.57,29.05,0,0,0,0.00
2013-9-29,54.0,51.9,50.4,53.1,51.5,50.1,99,99,90,29.27,28.87,0,0,0,0.00
2013-9-30,57.0,51.3,48.0,53.7,50.0,47.2,99,95,81,29.64,29.14,0,0,0,0.00
2013-10-1,57.2,50.8,47.5,52.8,48.7,45.4,99,93,66,29.82,29.62,0,0,0,0.00
2013-10-2,53.2,49.9,48.4,52.6,49.2,48.1,99,97,91,29.89,29.77,0,0,0,0.00
2013-10-3,57.2,50.6,46.8,50.3,47.9,44.3,99,91,71,30.17,29.89,0,0,0,0.00
2013-10-4,61.3,51.3,44.1,50.9,47.1,43.2,99,87,54,30.19,30.06,0,0,0,0.00
2013-10-5,64.6,54.0,46.6,52.3,48.6,44.7,99,84,49,30.08,29.85,0,0,0,0.00
2013-10-6,70.9,57.0,47.5,55.6,49.1,40.7,99,79,39,29.85,29.59,0,0,0,0.00
2013-10-7,60.8,54.2,52.0,53.7,50.8,45.8,99,89,60,29.72,29.61,0,0,0,0.00
2013-10-8,55.6,50.6,46.9,51.9,47.8,42.8,99,90,65,29.79,29.68,0,0,0,0.00
2013-10-9,56.7,49.0,43.2,50.1,45.7,42.9,99,89,62,29.85,29.67,0,0,0,0.00
2013-10-10,59.0,51.3,46.9,51.2,48.6,46.3,99,91,67,29.79,29.65,0,0,0,0.00
2013-10-11,54.1,50.7,48.6,53.9,50.1,48.3,99,98,90,29.86,29.78,0,0,0,0.00
2013-10-12,54.7,50.1,46.8,52.7,49.2,46.5,99,97,85,29.93,29.78,0,0,0,0.00
2013-10-13,57.0,49.3,45.1,49.4,47.0,44.9,99,92,65,30.08,29.93,0,0,0,0.00
2013-10-14,57.9,48.1,42.6,50.5,46.1,42.4,99,94,66,30.14,30.08,0,0,0,0.00
2013-10-15,58.5,49.2,43.7,51.5,47.5,43.4,99,94,73,30.11,29.89,0,0,0,0.00
2013-10-16,55.2,50.3,47.3,51.7,49.2,47.0,99,96,84,29.92,29.86,0,0,0,0.00
2013-10-17,56.3,50.4,47.1,50.9,49.2,46.9,99,96,81,29.99,29.92,0,0,0,0.00
2013-10-18,52.3,47.8,43.9,51.5,47.4,43.6,99,99,94,29.96,29.86,0,0,0,0.00
2013-10-19,48.6,46.7,45.0,48.3,46.5,44.7,99,99,99,29.91,29.86,0,0,0,0.00
2013-10-20,49.3,47.3,45.7,49.0,47.1,45.4,99,99,99,29.92,29.86,0,0,0,0.00
2013-10-21,50.9,47.9,45.9,50.6,47.7,45.6,99,99,99,29.89,29.81,0,0,0,0.00
2013-10-22,53.2,48.0,45.5,53.0,47.7,45.2,99,99,98,29.84,29.75,0,0,0,0.00
2013-10-23,55.9,47.9,44.6,55.7,47.5,44.3,99,99,92,29.77,29.70,0,0,0,0.00
2013-10-24,48.4,46.5,44.1,48.1,46.2,43.8,99,99,99,29.80,29.74,0,0,0,0.00
2013-11-19,39.4,38.6,36.5,26.9,25.5,24.4,65,59,55,29.79,29.66,0,0,0,0.00
2013-11-20,50.0,36.6,32.0,31.8,27.9,24.1,90,72,42,30.22,29.79,0,0,0,0.00
2013-11-21,50.9,34.4,29.3,30.9,27.7,23.4,99,78,39,30.38,30.22,0,0,0,0.00
2013-11-22,47.3,36.0,30.2,34.0,29.5,27.3,94,78,51,30.37,30.17,0,0,0,0.00
2013-11-23,59.2,39.7,32.7,39.4,34.5,28.4,94,82,44,30.16,29.91,0,0,0,0.00
2013-11-24,55.9,39.9,34.5,43.5,38.2,34.3,99,94,59,29.97,29.88,0,0,0,0.00
2013-11-25,54.0,40.9,34.0,46.5,39.2,33.7,99,94,64,30.04,29.97,0,0,0,0.00
2013-11-26,57.0,43.8,36.5,46.2,38.8,35.3,99,84,57,29.99,29.81,0,0,0,0.00
2013-11-27,58.1,46.2,39.4,46.6,41.6,37.2,99,85,60,29.81,29.68,0,0,0,0.00
2013-11-28,59.4,41.4,36.1,51.8,40.8,35.7,99,98,69,29.89,29.75,0,0,0,0.00
2013-11-29,48.4,44.2,40.1,48.1,43.8,39.8,99,99,94,30.03,29.89,0,0,0,0.00
2013-11-30,49.6,47.6,44.1,49.2,46.6,43.8,99,97,89,30.04,29.81,0,0,0,0.00
2013-12-1,52.7,50.0,42.6,52.4,48.9,40.5,99,96,86,29.81,29.45,0,0,0,0.00
2013-12-2,47.3,38.9,34.5,40.6,35.4,31.2,99,88,57,29.78,29.53,0,0,0,0.00
2013-12-3,42.4,33.5,29.1,33.1,25.9,21.6,98,74,50,30.03,29.77,0,0,0,0.00
2013-12-4,42.8,29.9,25.7,29.7,25.9,22.7,99,86,55,30.07,30.01,0,0,0,0.00
2013-12-5,33.8,28.6,25.7,26.7,21.5,14.5,99,75,58,30.04,29.91,0,0,0,0.00
2013-12-6,35.1,26.7,22.5,14.7,8.2,4.6,58,45,29,29.95,29.85,0,0,0,0.00
2013-12-7,33.8,23.0,19.2,12.7,5.6,-4.6,68,48,21,30.14,29.94,0,0,0,0.00
2013-12-8,35.2,25.2,19.0,20.7,15.8,9.2,82,68,47,30.29,30.14,0,0,0,0.00
2013-12-9,32.9,29.2,23.4,28.4,22.1,15.2,86,74,64,30.30,30.21,0,0,0,0.00
2013-12-10,39.0,35.1,32.0,35.5,32.6,27.1,97,91,82,30.21,30.13,0,0,0,0.00
2013-12-11,39.7,34.7,29.7,38.6,34.0,29.4,99,97,90,30.14,29.89,0,0,0,0.00
2013-12-12,41.9,37.9,32.4,40.7,36.8,32.1,99,96,79,29.89,29.77,0,0,0,0.00
2013-12-13,46.8,44.5,41.2,46.5,44.2,40.9,99,99,99,30.13,29.84,0,0,0,0.00
2013-12-14,47.1,45.7,43.7,46.9,45.3,43.4,99,98,96,30.16,30.04,0,0,0,0.00
2013-12-15,49.8,47.4,45.7,49.6,47.2,45.4,99,99,96,30.17,30.03,0,0,0,0.00
2013-12-16,49.6,43.8,40.3,49.4,43.6,40.0,99,99,97,30.22,29.99,0,0,0,0.00
2013-12-17,43.3,41.2,39.7,43.1,40.9,39.5,99,99,99,29.99,29.82,0,0,0,0.00
2013-12-18,43.3,40.6,35.4,42.4,38.0,32.7,99,91,68,29.87,29.74,0,0,0,0.00
2013-12-19,40.6,34.6,30.4,36.2,27.2,21.6,99,75,53,30.07,29.86,0,0,0,0.00
2013-12-20,42.6,36.2,31.3,42.4,34.8,25.9,99,95,74,29.92,29.43,0,0,0,0.00
2013-12-21,44.1,41.7,39.0,43.8,41.4,38.8,99,99,99,29.88,29.56,0,0,0,0.00
2013-12-22,48.4,46.4,43.7,48.1,46.1,43.4,99,99,99,30.00,29.87,0,0,0,0.00
2013-12-23,49.5,48.3,47.8,49.2,48.0,47.4,99,99,99,29.95,29.85,0,0,0,0.00
2013-12-25,36.0,35.1,34.3,35.7,34.8,34.1,99,99,99,30.14,30.11,0,0,0,0.00
2013-12-26,45.3,37.6,34.7,45.1,37.4,34.4,99,99,95,30.12,29.94,0,0,0,0.00
2013-12-27,43.5,42.8,37.6,43.3,42.6,37.3,99,99,99,30.03,29.85,0,0,0,0.00
2013-12-28,47.8,42.2,37.9,47.6,42.0,37.7,99,99,99,30.24,30.19,0,0,0,0.00
2013-12-29,43.2,39.6,37.2,42.9,39.3,37.0,99,99,99,30.20,30.02,0,0,0,0.00
2013-12-30,43.3,41.1,38.5,43.1,40.8,38.2,99,99,99,30.04,29.84,0,0,0,0.00
2013-12-31,44.6,43.1,39.9,44.3,42.8,39.7,99,99,99,30.09,29.91,0,0,0,0.00
2014-1-1,44.1,41.2,38.8,43.8,41.0,38.6,99,99,99,30.12,29.96,0,0,0,0.00
2014-1-2,49.1,44.6,41.5,46.9,43.7,41.3,99,97,83,29.97,29.61,0,0,0,0.00